KNCA

Marine Corps Air Station New River

Airport
ICAO code
KNCA
Summary
ICAO Region
NAM
ICAO Territory
Location

Jacksonville, North Carolina,,

Coordinates
34° 42' 38" N , 77° 26' 21" W
KCC
Metar
KNCA 202156Z AUTO 06011KT 10SM CLR 12/03 A3027 RMK AO2 SLP252 T01170033

Description

Marine Corps Air Station New River is a United States Marine Corps helicopter and tilt-rotor base located 3 km south of the central business district of Jacksonville, North Carolina.

Climatology

Humid “subtropical” climate (Köppen climate classification Cfa) - characterized by hot, humid summers and cool winters. Significant amounts of precipitation occur in all seasons in most areas. Winter rainfall (and sometimes snowfall) is associated with large storms that the westerlies steer from west to east. Most summer rainfall occurs during thunderstorms and occasional tropical storms (hurricanes).

Runways

Designator Length Width Surface Rops
1/19 1460 46 ASP Yes/Yes
5/23 1559 46 ASP Yes/Yes

Airport map

Aerial View

SKYbrary Partners:

Safety knowledge contributed by: